createdAt,value
2018-12-31T00:00:36.897Z,2.80
2018-12-31T00:03:07.309Z,2.80
2018-12-31T00:05:37.259Z,2.80
2018-12-31T00:08:07.359Z,2.80
2018-12-31T00:10:37.314Z,2.90
2018-12-31T00:13:09.820Z,2.90
2018-12-31T00:15:42.412Z,2.90
2018-12-31T00:18:12.461Z,2.80
2018-12-31T00:20:42.435Z,2.80
2018-12-31T00:23:12.682Z,2.80
2018-12-31T00:25:42.693Z,2.80
2018-12-31T00:28:12.791Z,2.80
2018-12-31T00:30:43.129Z,2.80
2018-12-31T00:33:13.139Z,2.80
2018-12-31T00:35:46.092Z,2.80
2018-12-31T00:38:15.966Z,2.80
2018-12-31T00:40:45.964Z,2.80
2018-12-31T00:43:18.763Z,2.80
2018-12-31T00:45:48.756Z,2.80
2018-12-31T00:48:18.867Z,2.80
2018-12-31T00:50:48.716Z,2.80
2018-12-31T00:53:18.660Z,2.80
2018-12-31T00:55:48.524Z,2.90
2018-12-31T00:58:18.606Z,2.90
2018-12-31T01:00:48.704Z,2.90
2018-12-31T01:03:18.673Z,2.90
2018-12-31T01:05:48.994Z,2.90
2018-12-31T01:08:21.213Z,2.90
2018-12-31T01:10:51.289Z,2.90
2018-12-31T01:13:21.537Z,2.90
2018-12-31T01:15:51.596Z,2.90
2018-12-31T01:18:21.776Z,2.90
2018-12-31T01:20:51.808Z,2.90
2018-12-31T01:23:21.749Z,2.90
2018-12-31T01:25:51.992Z,2.90
2018-12-31T01:28:22.097Z,2.90
2018-12-31T01:30:52.196Z,2.90
2018-12-31T01:33:22.267Z,2.90
2018-12-31T01:35:52.474Z,2.90
2018-12-31T01:38:22.654Z,2.90
2018-12-31T01:40:52.762Z,3.00
2018-12-31T01:43:22.989Z,3.00
2018-12-31T01:45:53.063Z,3.00
2018-12-31T01:48:25.865Z,2.90
2018-12-31T01:50:55.992Z,2.90
2018-12-31T01:53:26.012Z,2.90
2018-12-31T01:55:56.210Z,2.90
2018-12-31T01:58:26.245Z,3.00
2018-12-31T02:00:56.399Z,2.90
2018-12-31T02:03:26.631Z,2.90
2018-12-31T02:05:57.000Z,2.90
2018-12-31T02:08:27.020Z,2.90
2018-12-31T02:10:56.914Z,2.90
2018-12-31T02:13:27.021Z,3.00
2018-12-31T02:15:57.019Z,3.00
2018-12-31T02:18:27.302Z,3.00
2018-12-31T02:20:57.365Z,3.00
2018-12-31T02:23:27.713Z,3.00
2018-12-31T02:25:57.507Z,2.90
2018-12-31T02:28:27.689Z,2.90
2018-12-31T02:30:58.173Z,2.90
2018-12-31T02:33:28.178Z,2.90
2018-12-31T02:35:58.131Z,2.90
2018-12-31T02:38:28.366Z,2.90
2018-12-31T02:40:58.401Z,2.90
2018-12-31T02:43:28.486Z,2.90
2018-12-31T02:45:58.607Z,2.90
2018-12-31T02:48:31.182Z,2.90
2018-12-31T02:51:00.958Z,2.90
2018-12-31T02:53:30.840Z,2.90
2018-12-31T02:56:00.605Z,2.90
2018-12-31T02:58:30.535Z,2.90
2018-12-31T03:01:00.333Z,3.00
2018-12-31T03:03:30.168Z,2.90
2018-12-31T03:06:00.001Z,2.90
2018-12-31T03:08:29.908Z,2.90
2018-12-31T03:10:59.746Z,2.90
2018-12-31T03:13:29.578Z,2.90
2018-12-31T03:15:59.438Z,2.90
2018-12-31T03:18:29.342Z,2.90
2018-12-31T03:20:59.188Z,2.90
2018-12-31T03:23:29.100Z,2.90
2018-12-31T03:25:58.945Z,2.90
2018-12-31T03:28:28.811Z,2.90
2018-12-31T03:30:58.656Z,2.90
2018-12-31T03:33:28.485Z,2.80
2018-12-31T03:35:58.268Z,2.80
2018-12-31T03:38:31.721Z,2.80
2018-12-31T03:41:01.579Z,2.80
2018-12-31T03:43:31.398Z,2.80
2018-12-31T03:46:01.231Z,2.80
2018-12-31T03:48:31.052Z,2.80
2018-12-31T03:51:00.877Z,2.70
2018-12-31T03:53:30.736Z,2.70
2018-12-31T03:56:00.734Z,2.70
2018-12-31T03:58:30.886Z,2.80
2018-12-31T04:01:00.713Z,2.70
2018-12-31T04:03:30.497Z,2.80
2018-12-31T04:06:00.331Z,2.80
2018-12-31T04:08:30.276Z,2.80
2018-12-31T04:11:00.148Z,2.80
2018-12-31T04:13:30.075Z,2.80
2018-12-31T04:15:59.854Z,2.80
2018-12-31T04:18:29.819Z,2.80
2018-12-31T04:20:59.599Z,2.80
2018-12-31T04:23:29.455Z,2.90
2018-12-31T04:25:59.257Z,2.80
2018-12-31T04:28:29.155Z,2.80
2018-12-31T04:30:59.047Z,2.80
2018-12-31T04:33:28.911Z,2.80
2018-12-31T04:35:58.727Z,2.80
2018-12-31T04:38:28.628Z,2.80
2018-12-31T04:40:58.414Z,2.80
2018-12-31T04:43:28.312Z,2.70
2018-12-31T04:45:58.170Z,2.70
2018-12-31T04:48:27.972Z,2.70
2018-12-31T04:50:57.982Z,2.80
2018-12-31T04:53:28.060Z,2.70
2018-12-31T04:55:57.903Z,2.70
2018-12-31T04:58:29.279Z,2.80
2018-12-31T05:00:59.310Z,2.70
2018-12-31T05:03:29.137Z,2.80
2018-12-31T05:05:59.059Z,2.80
2018-12-31T05:08:28.841Z,2.80
2018-12-31T05:10:58.752Z,2.70
2018-12-31T05:13:28.567Z,2.70
2018-12-31T05:15:58.388Z,2.70
2018-12-31T05:18:31.106Z,2.70
2018-12-31T05:21:00.930Z,2.70
2018-12-31T05:23:30.785Z,2.70
2018-12-31T05:26:00.595Z,2.70
2018-12-31T05:28:30.393Z,2.70
2018-12-31T05:31:00.205Z,2.70
2018-12-31T05:33:30.048Z,2.70
2018-12-31T05:35:59.790Z,2.80
2018-12-31T05:38:29.669Z,2.70
2018-12-31T05:40:59.490Z,2.70
2018-12-31T05:43:29.345Z,2.70
2018-12-31T05:45:59.122Z,2.70
2018-12-31T05:48:28.958Z,2.70
2018-12-31T05:50:58.741Z,2.70
2018-12-31T05:53:28.581Z,2.70
2018-12-31T05:55:58.432Z,2.70
2018-12-31T05:58:31.086Z,2.70
2018-12-31T06:01:01.032Z,2.70
2018-12-31T06:03:30.872Z,2.70
2018-12-31T06:06:00.722Z,2.60
2018-12-31T06:08:30.625Z,2.60
2018-12-31T06:11:02.261Z,2.60
2018-12-31T06:13:32.070Z,2.60
2018-12-31T06:16:02.037Z,2.60
2018-12-31T06:18:31.870Z,2.60
2018-12-31T06:21:01.882Z,2.60
2018-12-31T06:23:31.671Z,2.60
2018-12-31T06:26:01.473Z,2.60
2018-12-31T06:28:31.330Z,2.60
2018-12-31T06:31:01.542Z,2.60
2018-12-31T06:33:31.367Z,2.60
2018-12-31T06:36:01.169Z,2.60
2018-12-31T06:38:30.994Z,2.60
2018-12-31T06:41:00.861Z,2.60
2018-12-31T06:43:30.807Z,2.60
2018-12-31T06:46:00.601Z,2.60
2018-12-31T06:48:42.018Z,2.50
2018-12-31T06:51:11.911Z,2.50
2018-12-31T06:53:42.566Z,2.60
2018-12-31T06:56:12.593Z,2.60
2018-12-31T06:58:42.541Z,2.60
2018-12-31T07:01:12.458Z,2.60
2018-12-31T07:03:42.333Z,2.60
2018-12-31T07:06:13.054Z,2.60
2018-12-31T07:08:44.813Z,2.60
2018-12-31T07:11:14.627Z,2.50
2018-12-31T07:13:44.590Z,2.50
2018-12-31T07:16:14.474Z,2.50
2018-12-31T07:18:44.445Z,2.50
2018-12-31T07:21:14.360Z,2.50
2018-12-31T07:23:44.421Z,2.50
2018-12-31T07:26:14.349Z,2.50
2018-12-31T07:28:44.253Z,2.50
2018-12-31T07:31:14.450Z,2.50
2018-12-31T07:33:44.426Z,2.40
2018-12-31T07:36:14.328Z,2.40
2018-12-31T07:38:44.281Z,2.40
2018-12-31T07:41:14.217Z,2.50
2018-12-31T07:43:47.039Z,2.50
2018-12-31T07:46:16.839Z,2.50
2018-12-31T07:48:46.819Z,2.40
2018-12-31T07:51:16.684Z,2.40
2018-12-31T07:53:46.638Z,2.50
2018-12-31T07:56:16.821Z,2.50
2018-12-31T07:58:46.693Z,2.50
2018-12-31T08:01:16.575Z,2.40
2018-12-31T08:03:46.553Z,2.40
2018-12-31T08:06:16.473Z,2.40
2018-12-31T08:08:46.410Z,2.40
2018-12-31T08:11:16.245Z,2.30
2018-12-31T08:13:48.647Z,2.40
2018-12-31T08:16:18.514Z,2.40
2018-12-31T08:18:48.313Z,2.30
2018-12-31T08:21:18.141Z,2.40
2018-12-31T08:23:47.969Z,2.40
2018-12-31T08:26:17.857Z,2.40
2018-12-31T08:28:47.730Z,2.30
2018-12-31T08:31:17.645Z,2.30
2018-12-31T08:33:47.526Z,2.30
2018-12-31T08:36:17.395Z,2.20
2018-12-31T08:38:47.233Z,2.20
2018-12-31T08:41:17.022Z,2.20
2018-12-31T08:43:47.821Z,2.30
2018-12-31T08:46:17.757Z,2.30
2018-12-31T08:48:47.625Z,2.30
2018-12-31T08:51:17.502Z,2.30
2018-12-31T08:53:47.399Z,2.30
2018-12-31T08:56:17.170Z,2.30
2018-12-31T08:58:46.989Z,2.30
2018-12-31T09:01:16.824Z,2.40
2018-12-31T09:03:46.657Z,2.40
2018-12-31T09:06:16.491Z,2.30
2018-12-31T09:08:46.254Z,2.30
2018-12-31T09:11:16.111Z,2.30
2018-12-31T09:13:47.605Z,2.40
2018-12-31T09:16:17.461Z,2.40
2018-12-31T09:18:47.401Z,2.40
2018-12-31T09:21:17.254Z,2.40
2018-12-31T09:23:47.204Z,2.40
2018-12-31T09:26:17.019Z,2.40
2018-12-31T09:28:46.790Z,2.40
2018-12-31T09:31:16.704Z,2.50
2018-12-31T09:33:46.626Z,2.40
2018-12-31T09:36:16.502Z,2.40
2018-12-31T09:38:46.318Z,2.40
2018-12-31T09:41:16.280Z,2.40
2018-12-31T09:43:46.105Z,2.50
2018-12-31T09:46:15.942Z,2.50
2018-12-31T09:48:45.846Z,2.60
2018-12-31T09:51:15.811Z,2.60
2018-12-31T09:53:45.764Z,2.60
2018-12-31T09:56:16.659Z,2.60
2018-12-31T09:58:46.634Z,2.60
2018-12-31T10:01:16.529Z,2.70
2018-12-31T10:03:51.018Z,2.70
2018-12-31T10:06:20.896Z,2.80
2018-12-31T10:08:58.063Z,2.80
2018-12-31T10:11:42.633Z,2.80
2018-12-31T10:14:35.716Z,2.80
2018-12-31T10:17:13.383Z,2.80
2018-12-31T10:20:13.915Z,2.90
2018-12-31T10:27:05.098Z,2.90
2018-12-31T10:35:26.873Z,3.00
2018-12-31T10:37:59.943Z,3.00
2018-12-31T10:40:39.476Z,3.00
2018-12-31T10:43:30.892Z,3.00
2018-12-31T10:46:04.617Z,3.00
2018-12-31T10:49:04.599Z,3.00
2018-12-31T10:51:34.614Z,3.00
2018-12-31T10:54:04.434Z,3.00
2018-12-31T10:56:34.272Z,3.00
2018-12-31T10:59:04.166Z,3.10
2018-12-31T11:01:34.043Z,3.10
2018-12-31T11:04:03.978Z,3.10
2018-12-31T11:06:33.754Z,3.10
2018-12-31T11:09:03.936Z,3.20
2018-12-31T11:11:33.738Z,3.20
2018-12-31T11:14:03.530Z,3.20
2018-12-31T11:16:33.617Z,3.30
2018-12-31T11:19:03.465Z,3.20
2018-12-31T11:21:33.258Z,3.20
2018-12-31T11:24:03.110Z,3.30
2018-12-31T11:26:32.938Z,3.30
2018-12-31T11:29:02.874Z,3.30
2018-12-31T11:31:32.730Z,3.30
2018-12-31T11:34:02.546Z,3.30
2018-12-31T11:36:32.543Z,3.30
2018-12-31T11:39:02.587Z,3.50
2018-12-31T11:41:32.626Z,3.50
2018-12-31T11:44:02.549Z,3.50
2018-12-31T11:46:32.473Z,3.40
2018-12-31T11:49:02.525Z,3.50
2018-12-31T11:51:34.380Z,3.50
2018-12-31T11:54:04.324Z,3.50
2018-12-31T11:56:34.327Z,3.50
2018-12-31T11:59:04.419Z,3.50
2018-12-31T12:01:34.378Z,3.50
2018-12-31T12:04:13.175Z,3.50
2018-12-31T12:06:43.254Z,3.60
2018-12-31T12:09:13.258Z,3.60
2018-12-31T12:11:43.215Z,3.60
2018-12-31T12:14:13.145Z,3.60
2018-12-31T12:16:47.347Z,3.60
2018-12-31T12:19:17.429Z,3.60
2018-12-31T12:21:47.298Z,3.50
2018-12-31T12:24:17.234Z,3.50
2018-12-31T12:26:47.146Z,3.50
2018-12-31T12:29:17.376Z,3.60
2018-12-31T12:31:47.165Z,3.60
2018-12-31T12:34:16.987Z,3.60
2018-12-31T12:36:46.776Z,3.60
2018-12-31T12:39:17.305Z,3.70
2018-12-31T12:41:48.819Z,3.70
2018-12-31T12:44:18.764Z,3.70
2018-12-31T12:46:48.618Z,3.70
2018-12-31T12:49:18.611Z,3.70
2018-12-31T12:51:49.236Z,3.70
2018-12-31T12:54:19.225Z,3.80
2018-12-31T12:56:50.423Z,3.80
2018-12-31T12:59:20.458Z,3.80
2018-12-31T13:01:50.420Z,3.80
2018-12-31T13:04:20.177Z,3.90
2018-12-31T13:06:50.148Z,3.80
2018-12-31T13:09:20.293Z,3.80
2018-12-31T13:11:50.221Z,3.80
2018-12-31T13:14:20.032Z,3.90
2018-12-31T13:16:49.933Z,3.90
2018-12-31T13:19:20.342Z,3.90
2018-12-31T13:21:50.810Z,3.90
2018-12-31T13:24:20.801Z,3.90
2018-12-31T13:26:50.932Z,4.00
2018-12-31T13:29:20.734Z,3.90
2018-12-31T13:31:51.228Z,3.90
2018-12-31T13:34:21.415Z,3.90
2018-12-31T13:36:51.786Z,3.90
2018-12-31T13:39:25.236Z,4.00
2018-12-31T13:41:55.525Z,4.00
2018-12-31T13:44:25.655Z,4.00
2018-12-31T13:46:55.800Z,4.00
2018-12-31T13:49:26.121Z,4.10
2018-12-31T13:51:56.434Z,4.10
2018-12-31T13:54:26.662Z,4.10
2018-12-31T13:56:56.754Z,4.10
2018-12-31T13:59:27.183Z,4.10
2018-12-31T14:01:57.404Z,4.10
2018-12-31T14:04:27.641Z,4.10
2018-12-31T14:06:57.696Z,4.10
2018-12-31T14:09:27.794Z,4.10
2018-12-31T14:11:58.181Z,4.10
2018-12-31T14:14:28.583Z,4.20
2018-12-31T14:16:58.695Z,4.20
2018-12-31T14:19:28.926Z,4.20
2018-12-31T14:21:58.841Z,4.10
2018-12-31T14:24:29.281Z,4.10
2018-12-31T14:27:00.608Z,4.10
2018-12-31T14:29:31.226Z,4.10
2018-12-31T14:32:01.610Z,4.10
2018-12-31T14:34:31.900Z,4.10
2018-12-31T14:37:02.147Z,4.10
2018-12-31T14:39:32.743Z,4.10
2018-12-31T14:42:03.124Z,4.10
2018-12-31T14:44:33.432Z,4.10
2018-12-31T14:47:03.329Z,4.10
2018-12-31T14:49:33.505Z,4.10
2018-12-31T14:52:03.634Z,4.10
2018-12-31T14:54:33.588Z,4.10
2018-12-31T14:57:03.882Z,4.10
2018-12-31T14:59:34.005Z,4.10
2018-12-31T15:02:04.271Z,4.10
2018-12-31T15:04:34.529Z,4.20
2018-12-31T15:07:04.611Z,4.20
2018-12-31T15:09:34.564Z,4.20
2018-12-31T15:12:04.839Z,4.20
2018-12-31T15:14:35.869Z,4.20
2018-12-31T15:17:07.016Z,4.20
2018-12-31T15:19:37.794Z,4.20
2018-12-31T15:22:08.259Z,4.20
2018-12-31T15:24:38.544Z,4.20
2018-12-31T15:27:08.653Z,4.20
2018-12-31T15:29:40.142Z,4.10
2018-12-31T15:32:10.542Z,4.10
2018-12-31T15:34:41.333Z,4.20
2018-12-31T15:37:14.711Z,4.20
2018-12-31T15:39:45.087Z,4.20
2018-12-31T15:42:16.041Z,4.20
2018-12-31T15:44:46.519Z,4.20
2018-12-31T15:47:18.934Z,4.20
2018-12-31T15:49:49.299Z,4.20
2018-12-31T15:52:21.176Z,4.20
2018-12-31T15:54:52.016Z,4.20
2018-12-31T15:57:23.778Z,4.20
2018-12-31T15:59:54.804Z,4.20
2018-12-31T16:02:25.326Z,4.20
2018-12-31T16:04:55.586Z,4.20
2018-12-31T16:07:27.817Z,4.20
2018-12-31T16:09:57.743Z,4.20
2018-12-31T16:12:28.092Z,4.20
2018-12-31T16:14:59.105Z,4.20
2018-12-31T16:17:29.795Z,4.20
2018-12-31T16:20:01.337Z,4.20
2018-12-31T16:22:31.559Z,4.20
2018-12-31T16:25:02.454Z,4.20
2018-12-31T16:27:33.899Z,4.20
2018-12-31T16:30:04.768Z,4.20
2018-12-31T16:32:35.409Z,4.30
2018-12-31T16:35:07.993Z,4.20
2018-12-31T16:37:38.931Z,4.20
2018-12-31T16:40:10.015Z,4.20
2018-12-31T16:42:40.214Z,4.20
2018-12-31T16:45:13.520Z,4.30
2018-12-31T16:47:44.015Z,4.30
2018-12-31T16:50:15.576Z,4.30
2018-12-31T16:52:46.556Z,4.30
2018-12-31T16:55:17.087Z,4.30
2018-12-31T16:57:47.263Z,4.30
2018-12-31T17:00:17.716Z,4.30
2018-12-31T17:02:50.694Z,4.30
2018-12-31T17:05:20.528Z,4.30
2018-12-31T17:07:50.335Z,4.30
2018-12-31T17:10:20.350Z,4.30
2018-12-31T17:12:50.499Z,4.30
2018-12-31T17:15:20.386Z,4.40
2018-12-31T17:17:50.314Z,4.40
2018-12-31T17:20:20.203Z,4.40
2018-12-31T17:22:50.438Z,4.40
2018-12-31T17:25:20.405Z,4.40
2018-12-31T17:27:50.303Z,4.40
2018-12-31T17:30:20.153Z,4.40
2018-12-31T17:32:50.175Z,4.40
2018-12-31T17:35:20.272Z,4.40
2018-12-31T17:37:50.178Z,4.40
2018-12-31T17:40:20.222Z,4.40
2018-12-31T17:42:50.366Z,4.40
2018-12-31T17:45:23.389Z,4.40
2018-12-31T17:47:52.483Z,4.40
2018-12-31T17:50:22.470Z,4.50
2018-12-31T17:52:52.483Z,4.50
2018-12-31T17:55:22.930Z,4.50
2018-12-31T17:57:53.085Z,4.50
2018-12-31T18:00:23.374Z,4.50
2018-12-31T18:02:53.490Z,4.50
2018-12-31T18:05:23.708Z,4.50
2018-12-31T18:07:53.649Z,4.50
2018-12-31T18:10:24.114Z,4.50
2018-12-31T18:12:54.373Z,4.50
2018-12-31T18:15:24.513Z,4.50
2018-12-31T18:17:54.980Z,4.50
2018-12-31T18:20:25.121Z,4.60
2018-12-31T18:22:55.618Z,4.60
2018-12-31T18:25:25.896Z,4.60
2018-12-31T18:27:55.967Z,4.60
2018-12-31T18:30:26.239Z,4.70
2018-12-31T18:32:56.811Z,4.70
2018-12-31T18:35:27.041Z,4.60
2018-12-31T18:37:56.823Z,4.70
2018-12-31T18:40:26.988Z,4.60
2018-12-31T18:42:57.746Z,4.60
2018-12-31T18:45:27.614Z,4.60
2018-12-31T18:47:57.572Z,4.60
2018-12-31T18:50:28.286Z,4.60
2018-12-31T18:52:58.932Z,4.70
2018-12-31T18:55:29.798Z,4.60
2018-12-31T18:58:00.500Z,4.60
2018-12-31T19:00:30.816Z,4.60
2018-12-31T19:03:00.977Z,4.70
2018-12-31T19:05:31.038Z,4.60
2018-12-31T19:08:01.316Z,4.60
2018-12-31T19:10:33.359Z,4.60
2018-12-31T19:13:05.417Z,4.60
2018-12-31T19:15:38.316Z,4.60
2018-12-31T19:18:09.065Z,4.60
2018-12-31T19:20:40.517Z,4.60
2018-12-31T19:23:10.747Z,4.60
2018-12-31T19:25:40.889Z,4.60
2018-12-31T19:28:11.254Z,4.60
2018-12-31T19:30:42.118Z,4.60
2018-12-31T19:33:12.380Z,4.60
2018-12-31T19:35:42.485Z,4.60
2018-12-31T19:38:12.718Z,4.60
2018-12-31T19:40:42.850Z,4.60
2018-12-31T19:43:14.735Z,4.60
2018-12-31T19:45:44.847Z,4.60
2018-12-31T19:48:15.011Z,4.60
2018-12-31T19:50:45.259Z,4.60
2018-12-31T19:53:16.326Z,4.60
2018-12-31T19:55:46.735Z,4.60
2018-12-31T19:58:17.211Z,4.60
2018-12-31T20:00:47.162Z,4.60
2018-12-31T20:03:17.802Z,4.60
2018-12-31T20:05:48.415Z,4.50
2018-12-31T20:08:18.452Z,4.50
2018-12-31T20:10:48.689Z,4.60
2018-12-31T20:13:18.990Z,4.50
2018-12-31T20:15:49.003Z,4.60
2018-12-31T20:18:19.153Z,4.60
2018-12-31T20:20:50.343Z,4.60
2018-12-31T20:23:20.394Z,4.60
2018-12-31T20:25:50.500Z,4.50
2018-12-31T20:28:20.827Z,4.50
2018-12-31T20:30:50.802Z,4.50
2018-12-31T20:33:20.898Z,4.50
2018-12-31T20:35:50.909Z,4.50
2018-12-31T20:38:21.090Z,4.50
2018-12-31T20:40:51.273Z,4.50
2018-12-31T20:43:22.878Z,4.50
2018-12-31T20:45:53.243Z,4.50
2018-12-31T20:48:23.588Z,4.50
2018-12-31T20:50:54.999Z,4.50
2018-12-31T20:53:25.293Z,4.50
2018-12-31T20:55:55.528Z,4.50
2018-12-31T20:58:25.750Z,4.50
2018-12-31T21:00:55.954Z,4.50
2018-12-31T21:03:26.069Z,4.50
2018-12-31T21:05:56.472Z,4.50
2018-12-31T21:08:26.493Z,4.40
2018-12-31T21:10:56.725Z,4.50
2018-12-31T21:13:27.584Z,4.50
2018-12-31T21:15:58.026Z,4.50
2018-12-31T21:18:28.376Z,4.50
2018-12-31T21:20:58.697Z,4.50
2018-12-31T21:23:32.138Z,4.50
2018-12-31T21:26:02.312Z,4.50
2018-12-31T21:28:35.005Z,4.40
2018-12-31T21:31:05.116Z,4.40
2018-12-31T21:33:37.037Z,4.40
2018-12-31T21:36:07.325Z,4.50
2018-12-31T21:38:37.426Z,4.50
2018-12-31T21:41:07.556Z,4.50
2018-12-31T21:43:37.439Z,4.50
2018-12-31T21:46:07.736Z,4.50
2018-12-31T21:48:37.734Z,4.50
2018-12-31T21:51:07.913Z,4.40
2018-12-31T21:53:38.104Z,4.40
2018-12-31T21:56:08.039Z,4.40
2018-12-31T21:58:38.414Z,4.40
2018-12-31T22:01:08.614Z,4.40
2018-12-31T22:03:38.982Z,4.40
2018-12-31T22:06:09.244Z,4.40
2018-12-31T22:08:40.028Z,4.30
2018-12-31T22:11:10.512Z,4.30
2018-12-31T22:13:40.473Z,4.30
2018-12-31T22:16:10.457Z,4.30
2018-12-31T22:18:40.578Z,4.30
2018-12-31T22:21:11.754Z,4.30
2018-12-31T22:23:41.575Z,4.30
2018-12-31T22:26:11.898Z,4.30
2018-12-31T22:28:42.351Z,4.20
2018-12-31T22:31:12.459Z,4.20
2018-12-31T22:33:42.894Z,4.20
2018-12-31T22:36:13.105Z,4.20
2018-12-31T22:38:43.095Z,4.30
2018-12-31T22:41:14.525Z,4.20
2018-12-31T22:43:44.832Z,4.20
2018-12-31T22:46:14.865Z,4.20
2018-12-31T22:48:47.227Z,4.20
2018-12-31T22:51:17.282Z,4.20
2018-12-31T22:53:50.170Z,4.20
2018-12-31T22:56:20.403Z,4.20
2018-12-31T22:58:50.722Z,4.20
2018-12-31T23:01:21.249Z,4.20
2018-12-31T23:03:54.594Z,4.30
2018-12-31T23:06:32.171Z,4.30
2018-12-31T23:09:02.799Z,4.30
2018-12-31T23:11:33.310Z,4.30
2018-12-31T23:14:03.489Z,4.30
2018-12-31T23:16:36.189Z,4.30
2018-12-31T23:19:06.570Z,4.30
2018-12-31T23:21:37.704Z,4.30
2018-12-31T23:24:08.197Z,4.30
2018-12-31T23:26:40.066Z,4.30
2018-12-31T23:29:11.365Z,4.30
2018-12-31T23:31:46.842Z,4.30
2018-12-31T23:34:23.033Z,4.30
2018-12-31T23:37:11.404Z,4.30
2018-12-31T23:39:43.116Z,4.30
2018-12-31T23:42:13.867Z,4.30
2018-12-31T23:44:44.344Z,4.30
2018-12-31T23:47:14.900Z,4.30
2018-12-31T23:49:44.775Z,4.30
2018-12-31T23:52:14.753Z,4.30
2018-12-31T23:54:44.797Z,4.30
2018-12-31T23:57:14.625Z,4.30
2018-12-31T23:59:44.498Z,4.30
